This is the latest recevied weather packets stored in our database for station/object NC0S. If no packets are shown the sender has not sent any weather packets the latest 10 day(s).
| Time | Temp. | Humidity | Pressure | Rain* | Wind** | Luminosity | Snow |
|---|---|---|---|---|---|---|---|
| 1777623663 | 5° C | 81% | 1020.2 hPa | 0 mm | - | - | - |
| 1777621843 | 5.56° C | 76% | 1020.7 hPa | 0 mm | - | - | - |
| 1777619442 | 7.22° C | 67% | 1020.5 hPa | 0 mm | - | - | - |
| 1777617643 | 7.78° C | 66% | 1020.7 hPa | 0 mm | - | - | - |
| 1777617042 | 7.78° C | 66% | 1020.8 hPa | 0 mm | - | - | - |
| 1777615242 | 8.89° C | 61% | 1020.8 hPa | 0 mm | - | - | - |
| 1777613442 | 9.44° C | 60% | 1020.5 hPa | 0 mm | - | - | - |
| 1777612842 | 9.44° C | 59% | 1020.4 hPa | 0 mm | - | - | - |
| 1777611643 | 10° C | 58% | 1020.3 hPa | 0 mm | - | - | - |
| 1777603243 | 12.22° C | 55% | 1019.2 hPa | 0 mm | - | - | - |
| 1777600242 | 13.33° C | 53% | 1018.5 hPa | 0 mm | - | - | - |
| 1777594842 | 16.11° C | 49% | 1017.1 hPa | 0 mm | - | - | - |
| 1777583443 | 18.89° C | 48% | 1017 hPa | 0 mm | - | - | - |
| 1777582843 | 18.33° C | 49% | 1017.1 hPa | 0 mm | - | - | - |
| 1777580462 | 19.44° C | 47% | 1017.6 hPa | 0 mm | - | - | - |
| 1777578662 | 19.44° C | 46% | 1017.7 hPa | 0 mm | - | - | - |
| 1777577442 | 18.89° C | 48% | 1017.8 hPa | 0 mm | - | - | - |
| 1777575043 | 18.89° C | 45% | 1018.1 hPa | 0 mm | - | - | - |
| 1777574442 | 18.89° C | 44% | 1018 hPa | 0 mm | - | - | - |
| 1777565442 | 16.11° C | 51% | 1020.2 hPa | 0 mm | - | - | - |
| 1777563082 | 15° C | 55% | 1020.3 hPa | 0 mm | - | - | - |
| 1777561842 | 15° C | 57% | 1020.5 hPa | 0 mm | - | - | - |
| 1777560042 | 13.89° C | 61% | 1020.3 hPa | 0 mm | - | - | - |
| 1777558242 | 13.33° C | 61% | 1020.2 hPa | 0 mm | - | - | - |
| 1777557642 | 13.33° C | 61% | 1020.3 hPa | 0 mm | - | - | - |
* Rain latest hour (hover to see other rain measurements)
** Current wind speed in m/s (hover to see current wind gust speed)